sensor_id;sensor_type;location;lat;lon;timestamp;temperature;humidity
25192;DHT22;13143;50.924;5.320;2023-09-19T00:01:34;18.70;99.90
25192;DHT22;13143;50.924;5.320;2023-09-19T00:04:00;18.60;99.90
25192;DHT22;13143;50.924;5.320;2023-09-19T00:06:29;18.60;99.90
25192;DHT22;13143;50.924;5.320;2023-09-19T00:08:57;18.60;99.90
25192;DHT22;13143;50.924;5.320;2023-09-19T00:11:26;18.60;99.90
25192;DHT22;13143;50.924;5.320;2023-09-19T00:13:52;18.60;99.90
25192;DHT22;13143;50.924;5.320;2023-09-19T00:16:18;18.50;99.90
25192;DHT22;13143;50.924;5.320;2023-09-19T00:18:44;18.50;99.90
25192;DHT22;13143;50.924;5.320;2023-09-19T00:21:10;18.50;99.90
25192;DHT22;13143;50.924;5.320;2023-09-19T00:23:37;18.50;99.90
25192;DHT22;13143;50.924;5.320;2023-09-19T00:26:03;18.50;99.90
25192;DHT22;13143;50.924;5.320;2023-09-19T00:28:30;18.50;99.90
25192;DHT22;13143;50.924;5.320;2023-09-19T00:30:57;18.50;99.90
25192;DHT22;13143;50.924;5.320;2023-09-19T00:33:27;18.40;99.90
25192;DHT22;13143;50.924;5.320;2023-09-19T00:35:56;18.40;99.90
25192;DHT22;13143;50.924;5.320;2023-09-19T00:38:22;18.40;99.90
25192;DHT22;13143;50.924;5.320;2023-09-19T00:40:53;18.40;99.90
25192;DHT22;13143;50.924;5.320;2023-09-19T00:43:19;18.40;99.90
25192;DHT22;13143;50.924;5.320;2023-09-19T00:45:48;18.30;99.90
25192;DHT22;13143;50.924;5.320;2023-09-19T00:48:17;18.40;99.90
25192;DHT22;13143;50.924;5.320;2023-09-19T00:50:46;18.40;99.90
25192;DHT22;13143;50.924;5.320;2023-09-19T00:53:15;18.30;99.90
25192;DHT22;13143;50.924;5.320;2023-09-19T00:55:44;18.30;99.90
25192;DHT22;13143;50.924;5.320;2023-09-19T00:58:11;18.30;99.90
25192;DHT22;13143;50.924;5.320;2023-09-19T01:00:37;18.20;99.90
25192;DHT22;13143;50.924;5.320;2023-09-19T01:03:04;18.30;99.90
25192;DHT22;13143;50.924;5.320;2023-09-19T01:05:33;18.30;99.90
25192;DHT22;13143;50.924;5.320;2023-09-19T01:07:59;18.20;99.90
25192;DHT22;13143;50.924;5.320;2023-09-19T01:10:25;18.20;99.90
25192;DHT22;13143;50.924;5.320;2023-09-19T01:12:54;18.20;99.90
25192;DHT22;13143;50.924;5.320;2023-09-19T01:21:09;18.10;99.90
25192;DHT22;13143;50.924;5.320;2023-09-19T01:23:52;18.10;99.90
25192;DHT22;13143;50.924;5.320;2023-09-19T01:29:01;18.10;99.90
25192;DHT22;13143;50.924;5.320;2023-09-19T01:31:35;18.10;99.90
25192;DHT22;13143;50.924;5.320;2023-09-19T01:34:03;18.10;99.90
25192;DHT22;13143;50.924;5.320;2023-09-19T01:36:37;18.00;99.90
25192;DHT22;13143;50.924;5.320;2023-09-19T01:39:09;18.00;99.90
25192;DHT22;13143;50.924;5.320;2023-09-19T01:44:28;18.00;99.90
25192;DHT22;13143;50.924;5.320;2023-09-19T01:46:59;18.00;99.90
25192;DHT22;13143;50.924;5.320;2023-09-19T01:49:37;18.00;99.90
25192;DHT22;13143;50.924;5.320;2023-09-19T01:52:15;18.00;99.90
25192;DHT22;13143;50.924;5.320;2023-09-19T01:55:01;17.90;99.90
25192;DHT22;13143;50.924;5.320;2023-09-19T01:57:42;17.90;99.90
25192;DHT22;13143;50.924;5.320;2023-09-19T02:00:12;17.90;99.90
25192;DHT22;13143;50.924;5.320;2023-09-19T02:02:40;17.90;99.90
25192;DHT22;13143;50.924;5.320;2023-09-19T02:05:07;17.90;99.90
25192;DHT22;13143;50.924;5.320;2023-09-19T02:07:33;17.90;99.90
25192;DHT22;13143;50.924;5.320;2023-09-19T02:10:05;17.90;99.90
25192;DHT22;13143;50.924;5.320;2023-09-19T02:12:32;17.90;99.90
25192;DHT22;13143;50.924;5.320;2023-09-19T02:14:58;17.80;99.90
25192;DHT22;13143;50.924;5.320;2023-09-19T02:17:25;17.80;99.90
25192;DHT22;13143;50.924;5.320;2023-09-19T02:19:54;17.80;99.90
25192;DHT22;13143;50.924;5.320;2023-09-19T02:22:21;17.80;99.90
25192;DHT22;13143;50.924;5.320;2023-09-19T02:24:48;17.80;99.90
25192;DHT22;13143;50.924;5.320;2023-09-19T02:27:14;17.80;99.90
25192;DHT22;13143;50.924;5.320;2023-09-19T02:29:44;17.70;99.90
25192;DHT22;13143;50.924;5.320;2023-09-19T02:32:10;17.70;99.90
25192;DHT22;13143;50.924;5.320;2023-09-19T02:34:36;17.80;99.90
25192;DHT22;13143;50.924;5.320;2023-09-19T02:37:05;17.80;99.90
25192;DHT22;13143;50.924;5.320;2023-09-19T02:39:32;17.70;99.90
25192;DHT22;13143;50.924;5.320;2023-09-19T02:41:58;17.70;99.90
25192;DHT22;13143;50.924;5.320;2023-09-19T02:44:23;17.70;99.90
25192;DHT22;13143;50.924;5.320;2023-09-19T02:46:50;17.70;99.90
25192;DHT22;13143;50.924;5.320;2023-09-19T02:49:16;17.60;99.90
25192;DHT22;13143;50.924;5.320;2023-09-19T02:51:43;17.60;99.90
25192;DHT22;13143;50.924;5.320;2023-09-19T02:54:09;17.60;99.90
25192;DHT22;13143;50.924;5.320;2023-09-19T02:56:36;17.60;99.90
25192;DHT22;13143;50.924;5.320;2023-09-19T02:59:02;17.60;99.90
25192;DHT22;13143;50.924;5.320;2023-09-19T03:01:28;17.60;99.90
25192;DHT22;13143;50.924;5.320;2023-09-19T03:03:54;17.60;99.90
25192;DHT22;13143;50.924;5.320;2023-09-19T03:06:21;17.60;99.90
25192;DHT22;13143;50.924;5.320;2023-09-19T03:08:47;17.50;99.90
25192;DHT22;13143;50.924;5.320;2023-09-19T03:11:15;17.50;99.90
25192;DHT22;13143;50.924;5.320;2023-09-19T03:13:44;17.50;99.90
25192;DHT22;13143;50.924;5.320;2023-09-19T03:16:11;17.50;99.90
25192;DHT22;13143;50.924;5.320;2023-09-19T03:18:40;17.50;99.90
25192;DHT22;13143;50.924;5.320;2023-09-19T03:21:06;17.50;99.90
25192;DHT22;13143;50.924;5.320;2023-09-19T03:23:32;17.50;99.90
25192;DHT22;13143;50.924;5.320;2023-09-19T03:25:57;17.50;99.90
25192;DHT22;13143;50.924;5.320;2023-09-19T03:28:24;17.40;99.90
25192;DHT22;13143;50.924;5.320;2023-09-19T03:31:05;17.40;99.90
25192;DHT22;13143;50.924;5.320;2023-09-19T03:33:32;17.40;99.90
25192;DHT22;13143;50.924;5.320;2023-09-19T03:35:58;17.40;99.90
25192;DHT22;13143;50.924;5.320;2023-09-19T03:38:25;17.40;99.90
25192;DHT22;13143;50.924;5.320;2023-09-19T03:40:51;17.40;99.90
25192;DHT22;13143;50.924;5.320;2023-09-19T03:43:17;17.40;99.90
25192;DHT22;13143;50.924;5.320;2023-09-19T03:45:43;17.40;99.90
25192;DHT22;13143;50.924;5.320;2023-09-19T03:48:15;17.30;99.90
25192;DHT22;13143;50.924;5.320;2023-09-19T03:50:41;17.30;99.90
25192;DHT22;13143;50.924;5.320;2023-09-19T03:53:07;17.30;99.90
25192;DHT22;13143;50.924;5.320;2023-09-19T03:55:33;17.30;99.90
25192;DHT22;13143;50.924;5.320;2023-09-19T03:58:04;17.30;99.90
25192;DHT22;13143;50.924;5.320;2023-09-19T04:00:30;17.30;99.90
25192;DHT22;13143;50.924;5.320;2023-09-19T04:02:56;17.30;99.90
25192;DHT22;13143;50.924;5.320;2023-09-19T04:05:23;17.30;99.90
25192;DHT22;13143;50.924;5.320;2023-09-19T04:07:49;17.20;99.90
25192;DHT22;13143;50.924;5.320;2023-09-19T04:10:16;17.20;99.90
25192;DHT22;13143;50.924;5.320;2023-09-19T04:12:51;17.20;99.90
25192;DHT22;13143;50.924;5.320;2023-09-19T04:15:17;17.20;99.90
25192;DHT22;13143;50.924;5.320;2023-09-19T04:17:43;17.20;99.90
25192;DHT22;13143;50.924;5.320;2023-09-19T04:20:09;17.20;99.90
25192;DHT22;13143;50.924;5.320;2023-09-19T04:22:37;17.20;99.90
25192;DHT22;13143;50.924;5.320;2023-09-19T04:25:05;17.10;99.90
25192;DHT22;13143;50.924;5.320;2023-09-19T04:27:32;17.10;99.90
25192;DHT22;13143;50.924;5.320;2023-09-19T04:29:58;17.10;99.90
25192;DHT22;13143;50.924;5.320;2023-09-19T04:32:28;17.10;99.90
25192;DHT22;13143;50.924;5.320;2023-09-19T04:34:54;17.10;99.90
25192;DHT22;13143;50.924;5.320;2023-09-19T04:37:20;17.10;99.90
25192;DHT22;13143;50.924;5.320;2023-09-19T04:39:47;17.10;99.90
25192;DHT22;13143;50.924;5.320;2023-09-19T04:42:13;17.10;99.90
25192;DHT22;13143;50.924;5.320;2023-09-19T04:44:40;17.10;99.90
25192;DHT22;13143;50.924;5.320;2023-09-19T04:47:05;17.10;99.90
25192;DHT22;13143;50.924;5.320;2023-09-19T04:49:31;17.10;99.90
25192;DHT22;13143;50.924;5.320;2023-09-19T04:51:57;17.10;99.90
25192;DHT22;13143;50.924;5.320;2023-09-19T04:54:23;17.10;99.90
25192;DHT22;13143;50.924;5.320;2023-09-19T04:56:48;17.10;99.90
25192;DHT22;13143;50.924;5.320;2023-09-19T04:59:14;17.10;99.90
25192;DHT22;13143;50.924;5.320;2023-09-19T05:01:41;17.10;99.90
25192;DHT22;13143;50.924;5.320;2023-09-19T05:04:06;17.00;99.90
25192;DHT22;13143;50.924;5.320;2023-09-19T05:06:32;17.00;99.90
25192;DHT22;13143;50.924;5.320;2023-09-19T05:08:59;17.00;99.90
25192;DHT22;13143;50.924;5.320;2023-09-19T05:11:25;17.00;99.90
25192;DHT22;13143;50.924;5.320;2023-09-19T05:13:51;17.00;99.90
25192;DHT22;13143;50.924;5.320;2023-09-19T05:16:18;17.00;99.90
25192;DHT22;13143;50.924;5.320;2023-09-19T05:18:44;17.00;99.90
25192;DHT22;13143;50.924;5.320;2023-09-19T05:21:10;17.00;99.90
25192;DHT22;13143;50.924;5.320;2023-09-19T05:23:36;17.00;99.90
25192;DHT22;13143;50.924;5.320;2023-09-19T05:26:02;17.00;99.90
25192;DHT22;13143;50.924;5.320;2023-09-19T05:28:32;16.90;99.90
25192;DHT22;13143;50.924;5.320;2023-09-19T05:31:02;17.00;99.90
25192;DHT22;13143;50.924;5.320;2023-09-19T05:33:28;16.90;99.90
25192;DHT22;13143;50.924;5.320;2023-09-19T05:35:56;16.90;99.90
25192;DHT22;13143;50.924;5.320;2023-09-19T05:38:22;16.90;99.90
25192;DHT22;13143;50.924;5.320;2023-09-19T05:40:49;16.90;99.90
25192;DHT22;13143;50.924;5.320;2023-09-19T05:43:15;16.90;99.90
25192;DHT22;13143;50.924;5.320;2023-09-19T05:45:41;16.90;99.90
25192;DHT22;13143;50.924;5.320;2023-09-19T05:48:11;16.90;99.90
25192;DHT22;13143;50.924;5.320;2023-09-19T05:50:39;16.90;99.90
25192;DHT22;13143;50.924;5.320;2023-09-19T05:53:05;16.90;99.90
25192;DHT22;13143;50.924;5.320;2023-09-19T05:55:32;16.80;99.90
25192;DHT22;13143;50.924;5.320;2023-09-19T05:57:58;16.80;99.90
25192;DHT22;13143;50.924;5.320;2023-09-19T06:00:25;16.80;99.90
25192;DHT22;13143;50.924;5.320;2023-09-19T06:02:56;16.80;99.90
25192;DHT22;13143;50.924;5.320;2023-09-19T06:05:24;16.80;99.90
25192;DHT22;13143;50.924;5.320;2023-09-19T06:07:52;16.80;99.90
25192;DHT22;13143;50.924;5.320;2023-09-19T06:10:19;16.80;99.90
25192;DHT22;13143;50.924;5.320;2023-09-19T06:12:46;16.80;99.90
25192;DHT22;13143;50.924;5.320;2023-09-19T06:15:14;16.80;99.90
25192;DHT22;13143;50.924;5.320;2023-09-19T06:17:43;16.80;99.90
25192;DHT22;13143;50.924;5.320;2023-09-19T06:20:11;16.70;99.90
25192;DHT22;13143;50.924;5.320;2023-09-19T06:22:41;16.80;99.90
25192;DHT22;13143;50.924;5.320;2023-09-19T06:25:09;16.70;99.90
25192;DHT22;13143;50.924;5.320;2023-09-19T06:27:40;16.70;99.90
25192;DHT22;13143;50.924;5.320;2023-09-19T06:30:10;16.70;99.90
25192;DHT22;13143;50.924;5.320;2023-09-19T06:32:42;16.70;99.90
25192;DHT22;13143;50.924;5.320;2023-09-19T06:35:10;16.70;99.90
25192;DHT22;13143;50.924;5.320;2023-09-19T06:37:37;16.70;99.90
25192;DHT22;13143;50.924;5.320;2023-09-19T06:40:12;16.70;99.90
25192;DHT22;13143;50.924;5.320;2023-09-19T06:42:52;16.70;99.90
25192;DHT22;13143;50.924;5.320;2023-09-19T06:45:19;16.70;99.90
25192;DHT22;13143;50.924;5.320;2023-09-19T06:47:47;16.70;99.90
25192;DHT22;13143;50.924;5.320;2023-09-19T06:50:19;16.70;99.90
25192;DHT22;13143;50.924;5.320;2023-09-19T06:52:46;16.70;99.90
25192;DHT22;13143;50.924;5.320;2023-09-19T06:55:19;16.60;99.90
25192;DHT22;13143;50.924;5.320;2023-09-19T06:57:46;16.70;99.90
25192;DHT22;13143;50.924;5.320;2023-09-19T07:00:13;16.70;99.90
25192;DHT22;13143;50.924;5.320;2023-09-19T07:03:03;16.70;99.90
25192;DHT22;13143;50.924;5.320;2023-09-19T07:05:30;16.70;99.90
25192;DHT22;13143;50.924;5.320;2023-09-19T07:07:57;16.70;99.90
25192;DHT22;13143;50.924;5.320;2023-09-19T07:10:25;16.70;99.90
25192;DHT22;13143;50.924;5.320;2023-09-19T07:12:59;16.70;99.90
25192;DHT22;13143;50.924;5.320;2023-09-19T07:15:26;16.70;99.90
25192;DHT22;13143;50.924;5.320;2023-09-19T07:17:53;16.70;99.90
25192;DHT22;13143;50.924;5.320;2023-09-19T07:20:19;16.80;99.90
25192;DHT22;13143;50.924;5.320;2023-09-19T07:22:45;16.80;99.90
25192;DHT22;13143;50.924;5.320;2023-09-19T07:25:13;16.80;99.90
25192;DHT22;13143;50.924;5.320;2023-09-19T07:27:43;16.80;99.90
25192;DHT22;13143;50.924;5.320;2023-09-19T07:30:10;16.80;99.90
25192;DHT22;13143;50.924;5.320;2023-09-19T07:32:37;16.80;99.90
25192;DHT22;13143;50.924;5.320;2023-09-19T07:35:04;16.80;99.90
25192;DHT22;13143;50.924;5.320;2023-09-19T07:37:34;16.80;99.90
25192;DHT22;13143;50.924;5.320;2023-09-19T07:40:00;16.80;99.90
25192;DHT22;13143;50.924;5.320;2023-09-19T07:42:27;16.80;99.90
25192;DHT22;13143;50.924;5.320;2023-09-19T07:44:53;16.80;99.90
25192;DHT22;13143;50.924;5.320;2023-09-19T07:47:20;16.80;99.90
25192;DHT22;13143;50.924;5.320;2023-09-19T07:49:49;16.80;99.90
25192;DHT22;13143;50.924;5.320;2023-09-19T07:52:15;16.80;99.90
25192;DHT22;13143;50.924;5.320;2023-09-19T07:54:41;16.90;99.90
25192;DHT22;13143;50.924;5.320;2023-09-19T07:57:10;16.90;99.90
25192;DHT22;13143;50.924;5.320;2023-09-19T07:59:36;16.90;99.90
25192;DHT22;13143;50.924;5.320;2023-09-19T08:02:04;17.00;99.90
25192;DHT22;13143;50.924;5.320;2023-09-19T08:04:30;16.90;99.90
25192;DHT22;13143;50.924;5.320;2023-09-19T08:06:59;16.90;99.90
25192;DHT22;13143;50.924;5.320;2023-09-19T08:09:29;16.90;99.90
25192;DHT22;13143;50.924;5.320;2023-09-19T08:11:59;17.00;99.90
25192;DHT22;13143;50.924;5.320;2023-09-19T08:14:28;16.90;99.90
25192;DHT22;13143;50.924;5.320;2023-09-19T08:16:58;17.00;99.90
25192;DHT22;13143;50.924;5.320;2023-09-19T08:19:27;17.00;99.90
25192;DHT22;13143;50.924;5.320;2023-09-19T08:22:00;17.00;99.90
25192;DHT22;13143;50.924;5.320;2023-09-19T08:24:30;17.00;99.90
25192;DHT22;13143;50.924;5.320;2023-09-19T08:26:56;17.00;99.90
25192;DHT22;13143;50.924;5.320;2023-09-19T08:29:23;17.10;99.90
25192;DHT22;13143;50.924;5.320;2023-09-19T08:31:56;17.10;99.90
25192;DHT22;13143;50.924;5.320;2023-09-19T08:34:23;17.10;99.90
25192;DHT22;13143;50.924;5.320;2023-09-19T08:36:55;17.10;99.90
25192;DHT22;13143;50.924;5.320;2023-09-19T08:39:26;17.10;99.90
25192;DHT22;13143;50.924;5.320;2023-09-19T08:41:58;17.10;99.90
25192;DHT22;13143;50.924;5.320;2023-09-19T08:44:25;17.20;99.90
25192;DHT22;13143;50.924;5.320;2023-09-19T08:46:55;17.20;99.90
25192;DHT22;13143;50.924;5.320;2023-09-19T08:49:58;17.20;99.90
25192;DHT22;13143;50.924;5.320;2023-09-19T08:52:32;17.20;99.90
25192;DHT22;13143;50.924;5.320;2023-09-19T08:55:03;17.20;99.90
25192;DHT22;13143;50.924;5.320;2023-09-19T08:57:36;17.20;99.90
25192;DHT22;13143;50.924;5.320;2023-09-19T09:00:05;17.30;99.90
25192;DHT22;13143;50.924;5.320;2023-09-19T09:02:39;17.30;99.90
25192;DHT22;13143;50.924;5.320;2023-09-19T09:05:10;17.30;99.90
25192;DHT22;13143;50.924;5.320;2023-09-19T09:07:40;17.30;99.90
25192;DHT22;13143;50.924;5.320;2023-09-19T09:10:07;17.30;99.90
25192;DHT22;13143;50.924;5.320;2023-09-19T09:12:34;17.30;99.90
25192;DHT22;13143;50.924;5.320;2023-09-19T09:15:02;17.40;99.90
25192;DHT22;13143;50.924;5.320;2023-09-19T09:17:30;17.40;99.90
25192;DHT22;13143;50.924;5.320;2023-09-19T09:19:56;17.40;99.90
25192;DHT22;13143;50.924;5.320;2023-09-19T09:22:22;17.40;99.90
25192;DHT22;13143;50.924;5.320;2023-09-19T09:24:56;17.40;99.90
25192;DHT22;13143;50.924;5.320;2023-09-19T09:27:27;17.40;99.90
25192;DHT22;13143;50.924;5.320;2023-09-19T09:29:53;17.50;99.90
25192;DHT22;13143;50.924;5.320;2023-09-19T09:32:23;17.50;99.90
25192;DHT22;13143;50.924;5.320;2023-09-19T09:34:59;17.50;99.90
25192;DHT22;13143;50.924;5.320;2023-09-19T09:37:26;17.50;99.90
25192;DHT22;13143;50.924;5.320;2023-09-19T09:39:58;17.50;99.90
25192;DHT22;13143;50.924;5.320;2023-09-19T09:42:34;17.60;99.90
25192;DHT22;13143;50.924;5.320;2023-09-19T09:47:47;17.60;99.90
25192;DHT22;13143;50.924;5.320;2023-09-19T09:50:28;17.70;99.90
25192;DHT22;13143;50.924;5.320;2023-09-19T09:52:56;17.70;99.90
25192;DHT22;13143;50.924;5.320;2023-09-19T09:56:04;17.70;99.90
25192;DHT22;13143;50.924;5.320;2023-09-19T09:58:38;17.70;99.90
25192;DHT22;13143;50.924;5.320;2023-09-19T10:01:06;17.70;99.90
25192;DHT22;13143;50.924;5.320;2023-09-19T10:03:35;17.80;99.90
25192;DHT22;13143;50.924;5.320;2023-09-19T10:06:08;17.80;99.90
25192;DHT22;13143;50.924;5.320;2023-09-19T10:09:05;17.80;99.90
25192;DHT22;13143;50.924;5.320;2023-09-19T10:11:45;17.80;99.90
25192;DHT22;13143;50.924;5.320;2023-09-19T10:14:17;17.80;99.90
25192;DHT22;13143;50.924;5.320;2023-09-19T10:16:47;17.90;99.90
25192;DHT22;13143;50.924;5.320;2023-09-19T10:19:23;17.90;99.90
25192;DHT22;13143;50.924;5.320;2023-09-19T10:21:54;17.90;99.90
25192;DHT22;13143;50.924;5.320;2023-09-19T10:24:22;17.90;99.90
25192;DHT22;13143;50.924;5.320;2023-09-19T10:26:50;17.90;99.90
25192;DHT22;13143;50.924;5.320;2023-09-19T10:29:17;18.00;99.90
25192;DHT22;13143;50.924;5.320;2023-09-19T10:31:47;18.00;99.90
25192;DHT22;13143;50.924;5.320;2023-09-19T10:34:17;18.00;99.90
25192;DHT22;13143;50.924;5.320;2023-09-19T10:36:46;18.00;99.90
25192;DHT22;13143;50.924;5.320;2023-09-19T10:39:16;18.00;99.90
25192;DHT22;13143;50.924;5.320;2023-09-19T10:41:53;18.00;99.90
25192;DHT22;13143;50.924;5.320;2023-09-19T10:44:24;18.10;99.90
25192;DHT22;13143;50.924;5.320;2023-09-19T10:46:54;18.10;99.90
25192;DHT22;13143;50.924;5.320;2023-09-19T10:49:21;18.10;99.90
25192;DHT22;13143;50.924;5.320;2023-09-19T10:51:50;18.10;99.90
25192;DHT22;13143;50.924;5.320;2023-09-19T10:54:22;18.20;99.90
25192;DHT22;13143;50.924;5.320;2023-09-19T10:56:53;18.20;99.90
25192;DHT22;13143;50.924;5.320;2023-09-19T10:59:21;18.20;99.90
25192;DHT22;13143;50.924;5.320;2023-09-19T11:01:50;18.20;99.90
25192;DHT22;13143;50.924;5.320;2023-09-19T11:04:27;18.20;99.90
25192;DHT22;13143;50.924;5.320;2023-09-19T11:07:09;18.30;99.90
25192;DHT22;13143;50.924;5.320;2023-09-19T11:14:57;18.30;99.90
25192;DHT22;13143;50.924;5.320;2023-09-19T11:17:33;18.40;99.90
25192;DHT22;13143;50.924;5.320;2023-09-19T11:30:40;18.50;99.90
25192;DHT22;13143;50.924;5.320;2023-09-19T11:33:27;18.50;99.90
25192;DHT22;13143;50.924;5.320;2023-09-19T11:36:35;18.50;99.90
25192;DHT22;13143;50.924;5.320;2023-09-19T11:39:02;18.60;99.90
25192;DHT22;13143;50.924;5.320;2023-09-19T11:41:38;18.60;99.90
25192;DHT22;13143;50.924;5.320;2023-09-19T11:49:19;18.70;99.90
25192;DHT22;13143;50.924;5.320;2023-09-19T11:51:51;18.70;99.90
25192;DHT22;13143;50.924;5.320;2023-09-19T11:54:20;18.70;99.90
25192;DHT22;13143;50.924;5.320;2023-09-19T11:56:52;18.80;99.90
25192;DHT22;13143;50.924;5.320;2023-09-19T11:59:24;18.80;99.90
25192;DHT22;13143;50.924;5.320;2023-09-19T12:02:10;18.80;99.90
25192;DHT22;13143;50.924;5.320;2023-09-19T12:04:44;18.80;99.90
25192;DHT22;13143;50.924;5.320;2023-09-19T12:07:15;18.90;99.90
25192;DHT22;13143;50.924;5.320;2023-09-19T12:09:43;18.90;99.90
25192;DHT22;13143;50.924;5.320;2023-09-19T12:12:25;18.90;99.90
25192;DHT22;13143;50.924;5.320;2023-09-19T12:14:54;19.00;99.90
25192;DHT22;13143;50.924;5.320;2023-09-19T12:17:22;19.00;99.90
25192;DHT22;13143;50.924;5.320;2023-09-19T12:19:53;19.00;99.90
25192;DHT22;13143;50.924;5.320;2023-09-19T12:22:19;19.00;99.90
25192;DHT22;13143;50.924;5.320;2023-09-19T12:24:46;19.10;99.90
25192;DHT22;13143;50.924;5.320;2023-09-19T12:27:16;19.10;99.90
25192;DHT22;13143;50.924;5.320;2023-09-19T12:29:47;19.10;99.90
25192;DHT22;13143;50.924;5.320;2023-09-19T12:32:37;19.20;99.90
25192;DHT22;13143;50.924;5.320;2023-09-19T12:35:10;19.20;99.90
25192;DHT22;13143;50.924;5.320;2023-09-19T12:37:51;19.20;99.90
25192;DHT22;13143;50.924;5.320;2023-09-19T12:40:21;19.20;99.90
25192;DHT22;13143;50.924;5.320;2023-09-19T12:42:54;19.30;99.90
25192;DHT22;13143;50.924;5.320;2023-09-19T12:45:29;19.30;99.90
25192;DHT22;13143;50.924;5.320;2023-09-19T12:51:19;19.30;99.90
25192;DHT22;13143;50.924;5.320;2023-09-19T12:53:57;19.30;99.90
25192;DHT22;13143;50.924;5.320;2023-09-19T12:56:23;19.40;99.90
25192;DHT22;13143;50.924;5.320;2023-09-19T12:58:54;19.40;99.90
25192;DHT22;13143;50.924;5.320;2023-09-19T13:01:20;19.40;99.90
25192;DHT22;13143;50.924;5.320;2023-09-19T13:04:14;19.40;99.90
25192;DHT22;13143;50.924;5.320;2023-09-19T13:07:00;19.50;99.90
25192;DHT22;13143;50.924;5.320;2023-09-19T13:09:27;19.50;99.90
25192;DHT22;13143;50.924;5.320;2023-09-19T13:12:05;19.50;99.90
25192;DHT22;13143;50.924;5.320;2023-09-19T13:15:10;19.50;99.90
25192;DHT22;13143;50.924;5.320;2023-09-19T13:17:45;19.50;99.90
25192;DHT22;13143;50.924;5.320;2023-09-19T13:20:26;19.50;99.90
25192;DHT22;13143;50.924;5.320;2023-09-19T13:22:58;19.60;99.90
25192;DHT22;13143;50.924;5.320;2023-09-19T13:25:35;19.60;99.90
25192;DHT22;13143;50.924;5.320;2023-09-19T13:28:01;19.60;99.90
25192;DHT22;13143;50.924;5.320;2023-09-19T13:30:30;19.60;99.90
25192;DHT22;13143;50.924;5.320;2023-09-19T13:33:10;19.60;99.90
25192;DHT22;13143;50.924;5.320;2023-09-19T13:35:38;19.60;99.90
25192;DHT22;13143;50.924;5.320;2023-09-19T13:38:05;19.70;99.90
25192;DHT22;13143;50.924;5.320;2023-09-19T13:40:40;19.70;99.90
25192;DHT22;13143;50.924;5.320;2023-09-19T13:43:09;19.70;99.90
25192;DHT22;13143;50.924;5.320;2023-09-19T13:45:36;19.70;99.90
25192;DHT22;13143;50.924;5.320;2023-09-19T13:48:02;19.70;99.90
25192;DHT22;13143;50.924;5.320;2023-09-19T13:50:28;19.70;99.90
25192;DHT22;13143;50.924;5.320;2023-09-19T13:52:55;19.70;99.90
25192;DHT22;13143;50.924;5.320;2023-09-19T13:55:21;19.80;99.90
25192;DHT22;13143;50.924;5.320;2023-09-19T13:57:47;19.80;99.90
25192;DHT22;13143;50.924;5.320;2023-09-19T14:00:20;19.80;99.90
25192;DHT22;13143;50.924;5.320;2023-09-19T14:02:46;19.80;99.90
25192;DHT22;13143;50.924;5.320;2023-09-19T14:05:14;19.80;99.90
25192;DHT22;13143;50.924;5.320;2023-09-19T14:07:42;19.80;99.90
25192;DHT22;13143;50.924;5.320;2023-09-19T14:10:10;19.80;99.90
25192;DHT22;13143;50.924;5.320;2023-09-19T14:12:37;19.80;99.90
25192;DHT22;13143;50.924;5.320;2023-09-19T14:15:06;19.80;99.90
25192;DHT22;13143;50.924;5.320;2023-09-19T14:17:33;19.90;99.90
25192;DHT22;13143;50.924;5.320;2023-09-19T14:19:59;19.80;99.90
25192;DHT22;13143;50.924;5.320;2023-09-19T14:22:25;19.90;99.90
25192;DHT22;13143;50.924;5.320;2023-09-19T14:24:51;19.90;99.90
25192;DHT22;13143;50.924;5.320;2023-09-19T14:27:18;19.90;99.90
25192;DHT22;13143;50.924;5.320;2023-09-19T14:29:44;19.90;99.90
25192;DHT22;13143;50.924;5.320;2023-09-19T14:32:10;19.90;99.90
25192;DHT22;13143;50.924;5.320;2023-09-19T14:34:36;19.90;99.90
25192;DHT22;13143;50.924;5.320;2023-09-19T14:37:10;19.90;99.90
25192;DHT22;13143;50.924;5.320;2023-09-19T14:39:40;19.90;99.90
25192;DHT22;13143;50.924;5.320;2023-09-19T14:42:06;19.90;99.90
25192;DHT22;13143;50.924;5.320;2023-09-19T14:44:34;19.90;99.90
25192;DHT22;13143;50.924;5.320;2023-09-19T14:47:00;19.90;99.90
25192;DHT22;13143;50.924;5.320;2023-09-19T14:49:26;19.90;99.90
25192;DHT22;13143;50.924;5.320;2023-09-19T14:51:52;19.90;99.90
25192;DHT22;13143;50.924;5.320;2023-09-19T14:54:18;19.90;99.90
25192;DHT22;13143;50.924;5.320;2023-09-19T14:56:45;19.90;99.90
25192;DHT22;13143;50.924;5.320;2023-09-19T14:59:10;19.90;99.90
25192;DHT22;13143;50.924;5.320;2023-09-19T15:01:36;19.90;99.90
25192;DHT22;13143;50.924;5.320;2023-09-19T15:04:04;19.90;99.90
25192;DHT22;13143;50.924;5.320;2023-09-19T15:06:29;19.90;99.90
25192;DHT22;13143;50.924;5.320;2023-09-19T15:08:55;19.90;99.90
25192;DHT22;13143;50.924;5.320;2023-09-19T15:11:22;19.90;99.90
25192;DHT22;13143;50.924;5.320;2023-09-19T15:13:51;19.90;99.90
25192;DHT22;13143;50.924;5.320;2023-09-19T15:16:17;19.90;99.90
25192;DHT22;13143;50.924;5.320;2023-09-19T15:18:45;19.90;99.90
25192;DHT22;13143;50.924;5.320;2023-09-19T15:21:13;19.90;99.90
25192;DHT22;13143;50.924;5.320;2023-09-19T15:23:41;20.00;99.90
25192;DHT22;13143;50.924;5.320;2023-09-19T15:26:11;20.00;99.90
25192;DHT22;13143;50.924;5.320;2023-09-19T15:28:38;20.00;99.90
25192;DHT22;13143;50.924;5.320;2023-09-19T15:31:07;20.00;99.90
25192;DHT22;13143;50.924;5.320;2023-09-19T15:33:34;19.90;99.90
25192;DHT22;13143;50.924;5.320;2023-09-19T15:36:11;20.00;99.90
25192;DHT22;13143;50.924;5.320;2023-09-19T15:41:33;20.00;99.90
25192;DHT22;13143;50.924;5.320;2023-09-19T15:44:01;20.00;99.90
25192;DHT22;13143;50.924;5.320;2023-09-19T15:46:32;20.00;99.90
25192;DHT22;13143;50.924;5.320;2023-09-19T15:49:01;20.00;99.90
25192;DHT22;13143;50.924;5.320;2023-09-19T15:51:27;20.00;99.90
25192;DHT22;13143;50.924;5.320;2023-09-19T15:53:54;20.00;99.90
25192;DHT22;13143;50.924;5.320;2023-09-19T15:56:22;20.00;99.90
25192;DHT22;13143;50.924;5.320;2023-09-19T15:58:52;20.00;99.90
25192;DHT22;13143;50.924;5.320;2023-09-19T16:01:22;20.00;99.90
25192;DHT22;13143;50.924;5.320;2023-09-19T16:03:50;20.00;99.90
25192;DHT22;13143;50.924;5.320;2023-09-19T16:06:24;20.00;99.90
25192;DHT22;13143;50.924;5.320;2023-09-19T16:08:56;20.00;99.90
25192;DHT22;13143;50.924;5.320;2023-09-19T16:11:24;20.00;99.90
25192;DHT22;13143;50.924;5.320;2023-09-19T16:13:51;20.00;99.90
25192;DHT22;13143;50.924;5.320;2023-09-19T16:16:19;20.00;99.90
25192;DHT22;13143;50.924;5.320;2023-09-19T16:19:01;20.00;99.90
25192;DHT22;13143;50.924;5.320;2023-09-19T16:21:33;20.00;99.90
25192;DHT22;13143;50.924;5.320;2023-09-19T16:24:03;20.00;99.90
25192;DHT22;13143;50.924;5.320;2023-09-19T16:26:29;20.00;99.90